Time;durP1;ratioP1;P1;durP2;ratioP2;P2;SDS_P1;SDS_P2;PMS_P1;PMS_P2;Temp;Humidity;BMP_temperature;BMP_pressure;BME280_temperature;BME280_humidity;BME280_pressure;Samples;Min_cycle;Max_cycle;Signal;HPM_P1;HPM_P2
2021/08/21 00:00:17;;;;;;;17.00;14.50;;;16.40;99.90;;;;;;5090973;28;20057;-44
2021/08/21 00:02:42;;;;;;;18.27;14.18;;;16.40;99.90;;;;;;5090675;28;20488;-43
2021/08/21 00:05:08;;;;;;;15.50;13.68;;;16.30;99.90;;;;;;5090319;28;20028;-43
2021/08/21 00:07:34;;;;;;;15.30;12.50;;;16.30;99.90;;;;;;5089922;28;20473;-43
2021/08/21 00:10:00;;;;;;;13.48;11.57;;;16.20;99.90;;;;;;5090379;28;20076;-42
2021/08/21 00:12:26;;;;;;;14.82;11.70;;;16.20;99.90;;;;;;5090223;28;20039;-42
2021/08/21 00:14:52;;;;;;;15.68;12.95;;;16.20;99.90;;;;;;5090557;28;20044;-42
2021/08/21 00:17:18;;;;;;;15.85;12.57;;;16.10;99.90;;;;;;5089908;28;20020;-42
2021/08/21 00:19:44;;;;;;;18.77;14.00;;;16.10;99.90;;;;;;5081086;28;20403;-44
2021/08/21 00:22:13;;;;;;;16.05;12.98;;;16.10;99.90;;;;;;5082407;28;20596;-41
2021/08/21 00:24:38;;;;;;;15.00;12.82;;;16.10;99.90;;;;;;5089056;28;20035;-41
2021/08/21 00:27:04;;;;;;;15.85;13.10;;;16.00;99.90;;;;;;5089634;28;20024;-41
2021/08/21 00:29:29;;;;;;;17.02;14.68;;;16.10;99.90;;;;;;5090273;28;20474;-42
2021/08/21 00:31:55;;;;;;;18.10;15.32;;;16.10;99.90;;;;;;5090235;28;20542;-42
2021/08/21 00:34:20;;;;;;;18.08;14.48;;;16.10;99.90;;;;;;5089795;28;20047;-43
2021/08/21 00:36:46;;;;;;;18.42;14.27;;;16.10;99.90;;;;;;5087974;28;20306;-43
2021/08/21 00:39:11;;;;;;;17.98;13.73;;;16.10;99.90;;;;;;5088582;28;20031;-42
2021/08/21 00:41:37;;;;;;;16.00;13.90;;;16.10;99.90;;;;;;5089850;28;20028;-42
2021/08/21 00:44:06;;;;;;;17.45;14.35;;;16.10;99.90;;;;;;5089824;28;20016;-43
2021/08/21 00:46:31;;;;;;;20.40;15.15;;;16.10;99.90;;;;;;5089127;28;20023;-42
2021/08/21 00:48:57;;;;;;;17.58;14.82;;;16.10;99.90;;;;;;5082161;28;20078;-43
2021/08/21 00:51:22;;;;;;;18.08;14.15;;;16.20;99.90;;;;;;5080996;28;20035;-42
2021/08/21 00:53:48;;;;;;;17.98;14.02;;;16.20;99.90;;;;;;5089435;28;20051;-42
2021/08/21 00:56:14;;;;;;;17.30;14.23;;;16.20;99.90;;;;;;5088823;28;20020;-42
2021/08/21 00:58:40;;;;;;;22.55;17.38;;;16.20;99.90;;;;;;5089380;28;20028;-43
2021/08/21 01:01:05;;;;;;;19.42;15.60;;;16.20;99.90;;;;;;5089507;28;20095;-42
2021/08/21 01:03:31;;;;;;;20.13;15.73;;;16.20;99.90;;;;;;5089480;28;20433;-42
2021/08/21 01:05:57;;;;;;;17.08;13.63;;;16.20;99.90;;;;;;5089089;28;20024;-42
2021/08/21 01:08:22;;;;;;;16.92;14.13;;;16.20;99.90;;;;;;5088437;28;20089;-42
2021/08/21 01:10:48;;;;;;;19.02;15.13;;;16.20;99.90;;;;;;5059947;28;20031;-43
2021/08/21 01:13:14;;;;;;;18.30;15.35;;;16.20;99.90;;;;;;5057837;28;20047;-42
2021/08/21 01:15:39;;;;;;;16.52;13.25;;;16.10;99.90;;;;;;5058300;28;20020;-41
2021/08/21 01:18:05;;;;;;;14.70;11.48;;;16.10;99.90;;;;;;5057371;28;20420;-42
2021/08/21 01:20:31;;;;;;;17.40;14.40;;;16.10;99.90;;;;;;5062044;28;20024;-42
2021/08/21 01:23:01;;;;;;;16.17;12.32;;;16.00;99.90;;;;;;5061009;28;20036;-43
2021/08/21 01:25:28;;;;;;;17.45;13.40;;;16.00;99.90;;;;;;5057198;28;20039;-43
2021/08/21 01:27:54;;;;;;;14.07;12.32;;;16.00;99.90;;;;;;5058838;28;20491;-43
2021/08/21 01:30:19;;;;;;;16.27;13.68;;;16.00;99.90;;;;;;5059380;28;20060;-43
2021/08/21 01:32:45;;;;;;;18.77;14.40;;;15.90;99.90;;;;;;5058212;28;20079;-43
2021/08/21 01:35:11;;;;;;;14.88;12.90;;;15.90;99.90;;;;;;5057330;28;20386;-43
2021/08/21 01:37:36;;;;;;;15.82;12.68;;;15.90;99.90;;;;;;5058374;28;20055;-42
2021/08/21 01:40:04;;;;;;;15.73;12.65;;;15.90;99.90;;;;;;5057174;28;20052;-44
2021/08/21 01:42:29;;;;;;;17.60;14.45;;;15.80;99.90;;;;;;5057737;28;20486;-45
2021/08/21 01:44:55;;;;;;;17.08;14.02;;;15.80;99.90;;;;;;5059029;28;20039;-42
2021/08/21 01:47:21;;;;;;;16.73;13.88;;;15.80;99.90;;;;;;5056638;28;20033;-42
2021/08/21 01:49:59;;;;;;;16.13;13.43;;;15.80;99.90;;;;;;5060989;28;20083;-42
2021/08/21 01:52:26;;;;;;;28.23;20.95;;;15.80;99.90;;;;;;5060866;28;20044;-43
2021/08/21 01:54:52;;;;;;;29.77;21.23;;;15.80;99.90;;;;;;5058633;28;20021;-42
2021/08/21 01:57:17;;;;;;;28.10;20.55;;;15.80;99.90;;;;;;5058151;28;20016;-43
2021/08/21 01:59:45;;;;;;;28.17;20.92;;;15.80;99.90;;;;;;5058182;28;20017;-43
2021/08/21 02:02:14;;;;;;;27.42;19.67;;;15.90;99.90;;;;;;5057469;28;20098;-43
2021/08/21 02:04:40;;;;;;;26.02;19.75;;;15.90;99.90;;;;;;5057502;28;20021;-42
2021/08/21 02:07:05;;;;;;;21.02;15.95;;;15.90;99.90;;;;;;5055872;28;20032;-43
2021/08/21 02:09:33;;;;;;;22.35;16.25;;;15.80;99.90;;;;;;5058890;28;20021;-43
2021/08/21 02:12:00;;;;;;;22.00;17.08;;;15.90;99.90;;;;;;5057030;28;20041;-43
2021/08/21 02:14:27;;;;;;;21.42;16.17;;;15.90;99.90;;;;;;5056337;28;20350;-43
2021/08/21 02:16:56;;;;;;;19.40;16.77;;;15.90;99.90;;;;;;5056798;28;20066;-43
2021/08/21 02:19:21;;;;;;;19.52;15.70;;;15.90;99.90;;;;;;5060044;28;20068;-44
2021/08/21 02:21:49;;;;;;;18.63;15.27;;;15.90;99.90;;;;;;5062479;28;20057;-43
2021/08/21 02:24:15;;;;;;;19.98;15.45;;;15.90;99.90;;;;;;5056707;28;20251;-45
2021/08/21 02:26:45;;;;;;;17.95;14.57;;;15.90;99.90;;;;;;5046879;28;20108;-44
2021/08/21 02:29:12;;;;;;;21.00;16.42;;;15.90;99.90;;;;;;5047384;28;20025;-44
2021/08/21 02:31:38;;;;;;;24.20;16.98;;;15.90;99.90;;;;;;5047111;28;20031;-43
2021/08/21 02:34:04;;;;;;;23.35;18.05;;;15.90;99.90;;;;;;5047282;28;20100;-44
2021/08/21 02:36:30;;;;;;;23.92;16.90;;;15.90;99.90;;;;;;5046708;28;20124;-43
2021/08/21 02:38:56;;;;;;;21.83;17.45;;;15.90;99.90;;;;;;5046047;28;20438;-43
2021/08/21 02:41:22;;;;;;;23.30;17.10;;;15.90;99.90;;;;;;5045863;28;20064;-40
2021/08/21 02:43:47;;;;;;;23.73;17.48;;;15.90;99.90;;;;;;5047522;28;20037;-42
2021/08/21 02:46:13;;;;;;;22.70;17.15;;;15.90;99.90;;;;;;5046182;28;20644;-43
2021/08/21 02:48:38;;;;;;;20.95;17.23;;;15.90;99.90;;;;;;5051796;28;20375;-43
2021/08/21 02:51:04;;;;;;;21.17;16.67;;;15.90;99.90;;;;;;5082156;28;20024;-43
2021/08/21 02:53:29;;;;;;;22.27;16.77;;;15.90;99.90;;;;;;5092004;28;20481;-43
2021/08/21 02:55:55;;;;;;;22.38;17.65;;;15.90;99.90;;;;;;5090706;28;20111;-42
2021/08/21 02:58:22;;;;;;;25.63;18.80;;;15.90;99.90;;;;;;5091114;28;20034;-42
2021/08/21 03:00:47;;;;;;;32.28;20.92;;;15.90;99.90;;;;;;5091727;28;20028;-42
2021/08/21 03:03:13;;;;;;;26.70;19.42;;;15.80;99.90;;;;;;5091860;28;20024;-43
2021/08/21 03:05:39;;;;;;;24.45;18.63;;;15.80;99.90;;;;;;5091841;28;20027;-44
2021/08/21 03:08:05;;;;;;;21.83;17.25;;;15.80;99.90;;;;;;5090984;28;20028;-43
2021/08/21 03:10:32;;;;;;;20.65;16.88;;;15.80;99.90;;;;;;5091724;28;20032;-43
2021/08/21 03:12:57;;;;;;;19.58;15.52;;;15.70;99.90;;;;;;5090091;28;20508;-42
2021/08/21 03:15:27;;;;;;;20.80;16.98;;;15.70;99.90;;;;;;5091405;28;20226;-43
2021/08/21 03:17:53;;;;;;;21.80;16.48;;;15.70;99.90;;;;;;5091028;28;20024;-43
2021/08/21 03:20:19;;;;;;;26.70;18.02;;;15.70;99.90;;;;;;5080826;28;20054;-43
2021/08/21 03:22:44;;;;;;;22.55;16.40;;;15.70;99.90;;;;;;5088028;28;20052;-43
2021/08/21 03:25:10;;;;;;;23.38;18.05;;;15.70;99.90;;;;;;5091351;28;20032;-43
2021/08/21 03:27:35;;;;;;;21.20;16.58;;;15.70;99.90;;;;;;5090552;28;20032;-43
2021/08/21 03:30:02;;;;;;;22.17;18.45;;;15.70;99.90;;;;;;5089899;28;20024;-43
2021/08/21 03:32:28;;;;;;;21.33;16.77;;;15.70;99.90;;;;;;5089805;28;20119;-43
2021/08/21 03:34:54;;;;;;;22.23;16.48;;;15.70;99.90;;;;;;5091131;28;20020;-42
2021/08/21 03:37:20;;;;;;;18.52;14.90;;;15.70;99.90;;;;;;5090536;28;20497;-42
2021/08/21 03:39:45;;;;;;;19.17;15.15;;;15.70;99.90;;;;;;5091171;28;20102;-42
2021/08/21 03:42:11;;;;;;;23.65;16.80;;;15.70;99.90;;;;;;5089773;28;20035;-42
2021/08/21 03:44:36;;;;;;;19.85;15.88;;;15.70;99.90;;;;;;5090922;28;20028;-42
2021/08/21 03:47:02;;;;;;;18.10;14.88;;;15.70;99.90;;;;;;5090217;28;20062;-42
2021/08/21 03:49:28;;;;;;;21.77;15.95;;;15.70;99.90;;;;;;5086489;28;20115;-42
2021/08/21 03:51:53;;;;;;;18.02;14.57;;;15.70;99.90;;;;;;5082329;28;20035;-42
2021/08/21 03:54:19;;;;;;;19.20;15.60;;;15.70;99.90;;;;;;5089687;28;20016;-43
2021/08/21 03:56:44;;;;;;;20.20;16.02;;;15.70;99.90;;;;;;5090217;28;20036;-42
2021/08/21 03:59:10;;;;;;;16.92;14.57;;;15.70;99.90;;;;;;5090534;28;20016;-42
2021/08/21 04:01:35;;;;;;;18.35;15.10;;;15.70;99.90;;;;;;5090916;28;20059;-43
2021/08/21 04:04:01;;;;;;;20.90;15.50;;;15.70;99.90;;;;;;5090615;28;20102;-42
2021/08/21 04:06:27;;;;;;;20.42;16.13;;;15.70;99.90;;;;;;5090169;28;20047;-42
2021/08/21 04:08:52;;;;;;;22.50;18.38;;;15.70;99.90;;;;;;5090474;28;20416;-44
2021/08/21 04:11:18;;;;;;;23.55;19.10;;;15.70;99.90;;;;;;5090624;28;20494;-42
2021/08/21 04:13:43;;;;;;;28.48;19.83;;;15.70;99.90;;;;;;5090201;28;20028;-42
2021/08/21 04:16:09;;;;;;;27.52;20.45;;;15.80;99.90;;;;;;5089647;28;20070;-42
2021/08/21 04:18:35;;;;;;;22.50;18.20;;;15.80;99.90;;;;;;5087445;28;20031;-43
2021/08/21 04:21:00;;;;;;;23.02;17.88;;;15.80;99.90;;;;;;5079507;28;20428;-43
2021/08/21 04:23:26;;;;;;;28.40;22.17;;;15.80;99.90;;;;;;5090209;28;20035;-42
2021/08/21 04:25:51;;;;;;;25.67;19.60;;;15.80;99.90;;;;;;5089064;28;20063;-42
2021/08/21 04:28:17;;;;;;;22.48;18.02;;;15.80;99.90;;;;;;5089861;28;20016;-43
2021/08/21 04:30:43;;;;;;;21.98;17.08;;;15.70;99.90;;;;;;5090244;28;20031;-42
2021/08/21 04:33:09;;;;;;;21.13;15.95;;;15.70;99.90;;;;;;5088663;28;20057;-42
2021/08/21 04:35:35;;;;;;;22.35;16.85;;;15.70;99.90;;;;;;5088410;28;20277;-42
2021/08/21 04:38:01;;;;;;;22.80;16.42;;;15.70;99.90;;;;;;5089190;28;20190;-43
2021/08/21 04:40:28;;;;;;;19.00;15.38;;;15.60;99.90;;;;;;5089779;28;20051;-43
2021/08/21 04:42:54;;;;;;;20.73;15.60;;;15.60;99.90;;;;;;5089787;28;20032;-43
2021/08/21 04:45:19;;;;;;;22.30;15.38;;;15.50;99.90;;;;;;5090077;28;20034;-44
2021/08/21 04:47:45;;;;;;;20.58;14.50;;;15.50;99.90;;;;;;5089189;28;20039;-42
2021/08/21 04:50:11;;;;;;;23.02;17.50;;;15.50;99.90;;;;;;5081687;28;20024;-43
2021/08/21 04:52:36;;;;;;;22.92;17.88;;;15.50;99.90;;;;;;5085141;28;20085;-42
2021/08/21 04:55:03;;;;;;;24.83;18.27;;;15.60;99.90;;;;;;5068803;28;20024;-42
2021/08/21 04:57:29;;;;;;;20.48;16.48;;;15.60;99.90;;;;;;5058998;28;20384;-43
2021/08/21 04:59:54;;;;;;;24.55;18.63;;;15.60;99.90;;;;;;5056309;28;20112;-43
2021/08/21 05:02:20;;;;;;;24.45;18.25;;;15.60;99.90;;;;;;5059120;28;20241;-42
2021/08/21 05:04:45;;;;;;;22.33;17.83;;;15.70;99.90;;;;;;5057497;28;20025;-42
2021/08/21 05:07:11;;;;;;;27.30;21.23;;;15.60;99.90;;;;;;5057288;28;20124;-42
2021/08/21 05:09:36;;;;;;;26.60;19.50;;;15.70;99.90;;;;;;5060094;28;20482;-42
2021/08/21 05:12:02;;;;;;;26.73;18.90;;;15.70;99.90;;;;;;5055723;28;20032;-42
2021/08/21 05:14:27;;;;;;;22.48;17.17;;;15.70;99.90;;;;;;5042601;28;20057;-43
2021/08/21 05:16:53;;;;;;;22.08;18.40;;;15.70;99.90;;;;;;5059134;28;20021;-42
2021/08/21 05:19:33;;;;;;;21.17;16.88;;;15.80;99.90;;;;;;5055794;28;20020;-43
2021/08/21 05:22:10;;;;;;;23.25;16.80;;;15.80;99.90;;;;;;5059479;28;20025;-43
2021/08/21 05:24:35;;;;;;;26.63;21.05;;;15.80;99.90;;;;;;5053876;28;20497;-43
2021/08/21 05:27:01;;;;;;;21.27;17.48;;;15.80;99.90;;;;;;5058259;28;20067;-43
2021/08/21 05:29:27;;;;;;;24.35;16.95;;;15.90;99.90;;;;;;5059160;28;20448;-43
2021/08/21 05:31:55;;;;;;;24.05;18.95;;;15.90;99.90;;;;;;5057273;28;20025;-45
2021/08/21 05:34:21;;;;;;;22.88;17.63;;;15.90;99.90;;;;;;5058869;28;20013;-43
2021/08/21 05:36:47;;;;;;;19.60;16.45;;;15.90;99.90;;;;;;5046888;28;20499;-43
2021/08/21 05:39:12;;;;;;;23.52;17.60;;;16.00;99.90;;;;;;5062226;28;20025;-42
2021/08/21 05:41:38;;;;;;;22.95;17.70;;;16.00;99.90;;;;;;5061163;28;20056;-43
2021/08/21 05:44:04;;;;;;;23.52;18.08;;;16.00;99.90;;;;;;5061413;28;20092;-44
2021/08/21 05:46:29;;;;;;;24.42;19.05;;;16.10;99.90;;;;;;5060732;28;20032;-42
2021/08/21 05:48:55;;;;;;;21.80;17.80;;;16.10;99.90;;;;;;5059631;28;20116;-43
2021/08/21 05:51:20;;;;;;;20.35;16.35;;;16.10;99.90;;;;;;5066060;28;20060;-42
2021/08/21 05:53:46;;;;;;;22.35;17.08;;;16.20;99.90;;;;;;5068459;28;20309;-43
2021/08/21 05:56:11;;;;;;;21.80;18.23;;;16.20;99.90;;;;;;5065814;28;20028;-45
2021/08/21 05:58:37;;;;;;;21.58;16.35;;;16.20;99.90;;;;;;5058948;28;20036;-42
2021/08/21 06:01:02;;;;;;;23.17;18.70;;;16.30;99.90;;;;;;5058274;28;20021;-42
2021/08/21 06:03:28;;;;;;;23.45;17.55;;;16.30;99.90;;;;;;5057211;28;20020;-42
2021/08/21 06:05:53;;;;;;;24.08;18.95;;;16.40;99.90;;;;;;5061743;28;20024;-42
2021/08/21 06:08:19;;;;;;;22.77;18.27;;;16.40;99.90;;;;;;5056902;28;20024;-42
2021/08/21 06:10:44;;;;;;;28.77;20.55;;;16.50;99.90;;;;;;5062455;28;20102;-43
2021/08/21 06:13:10;;;;;;;22.00;18.48;;;16.50;99.90;;;;;;5061114;28;20023;-43
2021/08/21 06:15:37;;;;;;;29.05;21.17;;;16.50;99.90;;;;;;5058308;28;20024;-43
2021/08/21 06:18:03;;;;;;;21.67;17.65;;;16.60;99.90;;;;;;5047680;28;20459;-42
2021/08/21 06:20:28;;;;;;;20.30;16.40;;;16.60;99.90;;;;;;5070675;28;20020;-42
2021/08/21 06:22:54;;;;;;;22.00;17.40;;;16.70;99.90;;;;;;5088397;28;20051;-42
2021/08/21 06:25:20;;;;;;;23.95;19.10;;;16.70;99.90;;;;;;5078688;28;20522;-42
2021/08/21 06:27:45;;;;;;;23.58;18.40;;;16.80;99.90;;;;;;5061293;28;20017;-42
2021/08/21 06:30:12;;;;;;;23.42;18.60;;;16.90;99.90;;;;;;5061656;28;20052;-41
2021/08/21 06:32:37;;;;;;;25.52;19.25;;;16.90;99.90;;;;;;5066123;28;20021;-44
2021/08/21 06:35:04;;;;;;;23.92;19.52;;;16.90;99.90;;;;;;5065212;28;20386;-43
2021/08/21 06:37:29;;;;;;;21.98;17.73;;;17.00;99.90;;;;;;5051576;28;20029;-43
2021/08/21 06:39:55;;;;;;;21.92;17.67;;;17.10;99.90;;;;;;5052124;28;20548;-43
2021/08/21 06:42:20;;;;;;;19.08;15.95;;;17.20;99.90;;;;;;5052223;28;20677;-45
2021/08/21 06:44:46;;;;;;;24.23;19.85;;;17.30;99.90;;;;;;5052139;28;20029;-42
2021/08/21 06:47:11;;;;;;;21.23;17.50;;;17.30;99.90;;;;;;5051926;28;20439;-42
2021/08/21 06:49:37;;;;;;;20.35;17.40;;;17.30;99.90;;;;;;5066874;28;20549;-43
2021/08/21 06:52:03;;;;;;;24.33;21.25;;;17.40;99.90;;;;;;5084086;28;20032;-43
2021/08/21 06:54:28;;;;;;;25.05;20.23;;;17.40;99.90;;;;;;5091921;28;20054;-42
2021/08/21 06:56:54;;;;;;;22.70;18.65;;;17.50;99.90;;;;;;5091425;28;20047;-43
2021/08/21 06:59:20;;;;;;;26.15;20.85;;;17.60;99.90;;;;;;5091676;28;20024;-42
2021/08/21 07:01:46;;;;;;;21.58;17.60;;;17.70;99.90;;;;;;5065853;28;20387;-42
2021/08/21 07:04:11;;;;;;;22.95;19.23;;;17.80;99.90;;;;;;5042485;28;20025;-42
2021/08/21 07:06:37;;;;;;;25.15;18.83;;;17.80;99.90;;;;;;5064225;28;20052;-43
2021/08/21 07:09:03;;;;;;;21.52;19.08;;;17.90;99.90;;;;;;5061698;28;20028;-42
2021/08/21 07:11:28;;;;;;;22.77;18.73;;;18.00;99.90;;;;;;5052059;28;20033;-43
2021/08/21 07:13:54;;;;;;;21.75;17.23;;;18.10;99.90;;;;;;5051141;28;20103;-43
2021/08/21 07:16:19;;;;;;;26.25;19.40;;;18.10;99.90;;;;;;5050612;28;20029;-43
2021/08/21 07:18:45;;;;;;;19.73;16.35;;;18.20;99.90;;;;;;5051413;28;20060;-43
2021/08/21 07:21:11;;;;;;;23.13;18.42;;;18.30;99.90;;;;;;5065988;28;20043;-43
2021/08/21 07:23:37;;;;;;;22.95;18.70;;;18.40;99.90;;;;;;5060264;28;20199;-43
2021/08/21 07:26:03;;;;;;;22.85;17.88;;;18.50;99.90;;;;;;5056342;28;20474;-43
2021/08/21 07:28:30;;;;;;;19.88;17.10;;;18.60;99.90;;;;;;5057155;28;20419;-43
2021/08/21 07:30:56;;;;;;;22.23;18.35;;;18.70;99.90;;;;;;5059105;28;20021;-42
2021/08/21 07:33:22;;;;;;;20.55;17.05;;;18.60;99.90;;;;;;5050738;28;20475;-43
2021/08/21 07:35:48;;;;;;;22.80;18.50;;;18.70;99.90;;;;;;5050654;28;20075;-43
2021/08/21 07:38:13;;;;;;;17.80;15.90;;;18.90;99.90;;;;;;5050331;28;20060;-43
2021/08/21 07:40:39;;;;;;;22.15;17.70;;;18.90;99.90;;;;;;5050837;28;20048;-43
2021/08/21 07:43:04;;;;;;;20.70;17.00;;;19.10;99.90;;;;;;5050713;28;20032;-43
2021/08/21 07:45:30;;;;;;;17.73;15.73;;;19.30;99.90;;;;;;5050827;28;20036;-44
2021/08/21 07:47:57;;;;;;;23.13;17.92;;;19.40;99.90;;;;;;5059806;28;20025;-42
2021/08/21 07:50:22;;;;;;;18.30;15.95;;;19.70;99.90;;;;;;5067958;28;20040;-43
2021/08/21 07:52:48;;;;;;;17.00;15.13;;;19.80;99.90;;;;;;5064576;28;20035;-44
2021/08/21 07:55:14;;;;;;;18.08;15.52;;;19.90;99.90;;;;;;5057231;28;20105;-43
2021/08/21 07:57:40;;;;;;;18.00;15.85;;;20.00;99.90;;;;;;5062692;28;20102;-45
2021/08/21 08:00:06;;;;;;;16.70;14.80;;;20.30;99.90;;;;;;5070854;28;20461;-43
2021/08/21 08:02:31;;;;;;;15.63;13.93;;;20.50;99.90;;;;;;5057725;28;20029;-44
2021/08/21 08:04:57;;;;;;;15.50;13.80;;;20.80;99.90;;;;;;5056432;28;20037;-43
2021/08/21 08:07:23;;;;;;;15.57;13.95;;;21.10;99.90;;;;;;5054395;28;20408;-43
2021/08/21 08:09:48;;;;;;;15.23;13.25;;;21.30;99.90;;;;;;5054398;28;20038;-45
2021/08/21 08:12:14;;;;;;;13.40;12.00;;;21.50;99.90;;;;;;5059303;28;20039;-43
2021/08/21 08:14:39;;;;;;;12.52;11.23;;;21.80;99.90;;;;;;5057037;28;20156;-44
2021/08/21 08:17:05;;;;;;;15.30;12.52;;;22.40;99.90;;;;;;5056926;28;20024;-43
2021/08/21 08:19:31;;;;;;;13.60;10.25;;;23.00;99.90;;;;;;5059214;28;20060;-44
2021/08/21 08:21:56;;;;;;;13.75;12.27;;;23.60;99.90;;;;;;5057218;28;20064;-43
2021/08/21 08:24:23;;;;;;;11.75;9.52;;;23.90;99.90;;;;;;5057423;28;20017;-43
2021/08/21 08:26:49;;;;;;;20.27;18.08;;;24.70;99.90;;;;;;5058949;28;20063;-43
2021/08/21 08:29:15;;;;;;;54.28;45.58;;;25.30;99.90;;;;;;5066865;28;20508;-44
2021/08/21 08:31:40;;;;;;;16.15;12.52;;;26.00;99.90;;;;;;5069621;28;20051;-43
2021/08/21 08:34:06;;;;;;;11.10;9.80;;;26.00;99.30;;;;;;5069349;28;20390;-43
2021/08/21 08:36:32;;;;;;;13.85;10.43;;;26.20;98.80;;;;;;5067606;28;20048;-44
2021/08/21 08:38:57;;;;;;;10.55;9.05;;;26.50;97.70;;;;;;5068448;28;20031;-44
2021/08/21 08:41:23;;;;;;;14.45;11.70;;;26.70;96.30;;;;;;5066950;28;20032;-43
2021/08/21 08:43:49;;;;;;;9.27;8.07;;;27.20;95.30;;;;;;5068092;28;20024;-44
2021/08/21 08:46:20;;;;;;;7.63;6.93;;;27.80;94.50;;;;;;5066225;28;20067;-43
2021/08/21 08:48:47;;;;;;;10.98;9.98;;;27.80;93.90;;;;;;5068900;28;20033;-45
2021/08/21 08:51:13;;;;;;;12.25;10.93;;;27.20;93.60;;;;;;5080226;28;20028;-44
2021/08/21 08:53:38;;;;;;;10.88;9.77;;;26.10;94.60;;;;;;5088945;28;20492;-44
2021/08/21 08:56:04;;;;;;;10.15;9.15;;;26.60;94.90;;;;;;5067621;28;20035;-43
2021/08/21 08:58:30;;;;;;;10.80;9.63;;;27.00;94.30;;;;;;5046693;28;20021;-45
2021/08/21 09:00:55;;;;;;;10.63;8.70;;;27.20;93.90;;;;;;5046775;28;20025;-43
2021/08/21 09:03:24;;;;;;;13.18;11.77;;;27.30;93.10;;;;;;5048410;28;20029;-43
2021/08/21 09:05:52;;;;;;;9.98;8.90;;;27.80;91.80;;;;;;5047884;28;20037;-43
2021/08/21 09:08:29;;;;;;;9.30;8.35;;;27.90;91.70;;;;;;5047760;28;20394;-43
2021/08/21 09:10:57;;;;;;;10.05;9.02;;;28.40;92.10;;;;;;5059113;28;20032;-44
2021/08/21 09:13:24;;;;;;;11.07;9.77;;;29.30;90.90;;;;;;5064419;28;20033;-44
2021/08/21 09:15:54;;;;;;;10.13;8.65;;;29.80;88.00;;;;;;5058420;28;20482;-44
2021/08/21 09:18:22;;;;;;;8.32;7.20;;;30.10;84.50;;;;;;5056659;28;20151;-44
2021/08/21 09:20:47;;;;;;;10.70;9.02;;;30.10;84.90;;;;;;5058122;28;20032;-45
2021/08/21 09:23:19;;;;;;;77.85;69.43;;;30.10;82.30;;;;;;5058723;28;20029;-44
2021/08/21 09:25:47;;;;;;;15.20;13.00;;;29.70;82.50;;;;;;5053071;28;20025;-45
2021/08/21 09:28:20;;;;;;;9.65;8.63;;;29.40;81.00;;;;;;5047147;28;20041;-45
2021/08/21 09:30:46;;;;;;;11.32;9.07;;;29.50;82.90;;;;;;5048790;28;20021;-45
2021/08/21 09:33:15;;;;;;;9.77;8.77;;;29.10;83.00;;;;;;5048231;28;20033;-44
2021/08/21 09:35:41;;;;;;;12.88;8.95;;;28.70;85.00;;;;;;5047569;28;20453;-44
2021/08/21 09:38:08;;;;;;;9.60;8.05;;;28.30;85.50;;;;;;5063601;28;20063;-43
2021/08/21 09:40:39;;;;;;;13.05;10.40;;;28.10;86.00;;;;;;5060331;28;20279;-43
2021/08/21 09:43:07;;;;;;;7.43;6.72;;;28.70;86.10;;;;;;5067369;28;20024;-44
2021/08/21 09:45:39;;;;;;;11.95;10.05;;;29.30;85.80;;;;;;5066562;28;20039;-43
2021/08/21 09:48:06;;;;;;;12.45;9.25;;;30.00;82.90;;;;;;5067404;28;20020;-44
2021/08/21 09:50:40;;;;;;;8.90;8.00;;;30.90;78.00;;;;;;5066835;28;20049;-44
2021/08/21 09:53:09;;;;;;;9.55;8.65;;;31.40;74.90;;;;;;5080026;28;20161;-44
2021/08/21 09:55:35;;;;;;;10.68;9.30;;;31.50;74.90;;;;;;5088332;28;20431;-43
2021/08/21 09:58:04;;;;;;;11.70;9.38;;;31.00;74.30;;;;;;5087804;28;20059;-43
2021/08/21 10:00:31;;;;;;;15.27;9.93;;;30.30;74.30;;;;;;5088631;28;20421;-44
2021/08/21 10:02:57;;;;;;;12.32;10.82;;;29.00;79.30;;;;;;5088566;28;20031;-43
2021/08/21 10:05:24;;;;;;;14.77;11.48;;;27.80;81.80;;;;;;5088171;28;20566;-43
2021/08/21 10:08:00;;;;;;;12.70;10.18;;;27.00;84.20;;;;;;5087771;28;20032;-44
2021/08/21 10:10:33;;;;;;;14.20;11.30;;;26.50;87.20;;;;;;5088438;28;20020;-43
2021/08/21 10:13:08;;;;;;;13.02;10.25;;;26.70;88.40;;;;;;5087925;28;20036;-44
2021/08/21 10:15:37;;;;;;;13.35;10.18;;;28.10;84.80;;;;;;5088275;28;20047;-45
2021/08/21 10:18:03;;;;;;;11.13;10.02;;;29.20;80.40;;;;;;5087398;28;20027;-45
2021/08/21 10:20:29;;;;;;;9.13;8.15;;;30.40;79.00;;;;;;5065498;28;20109;-43
2021/08/21 10:22:55;;;;;;;13.15;9.15;;;31.40;77.10;;;;;;5080461;28;20077;-44
2021/08/21 10:25:24;;;;;;;9.80;8.13;;;32.20;72.40;;;;;;5088308;28;20024;-44
2021/08/21 10:27:56;;;;;;;;;;;33.50;69.10;;;;;;5086814;28;20031;-45
2021/08/21 10:30:26;;;;;;;11.68;9.13;;;32.90;68.80;;;;;;5088251;28;19908;-45
2021/08/21 10:33:03;;;;;;;12.55;9.48;;;33.20;67.20;;;;;;5088065;28;20031;-44
2021/08/21 10:36:01;;;;;;;8.05;6.47;;;33.30;65.50;;;;;;5087941;28;20407;-44
2021/08/21 10:38:29;;;;;;;9.82;7.85;;;34.00;64.50;;;;;;5063554;28;20039;-44
2021/08/21 10:40:59;;;;;;;11.05;9.07;;;34.40;61.70;;;;;;5088088;28;20595;-44
2021/08/21 10:43:43;;;;;;;6.93;6.25;;;34.00;61.10;;;;;;5088050;28;20032;-42
2021/08/21 10:46:08;;;;;;;5.50;4.95;;;33.50;62.80;;;;;;5087336;28;20528;-43
2021/08/21 10:48:37;;;;;;;5.70;5.20;;;33.50;61.00;;;;;;5088354;28;20032;-43
2021/08/21 10:51:40;;;;;;;7.28;5.97;;;34.70;58.10;;;;;;5068329;28;20093;-44
2021/08/21 10:54:26;;;;;;;9.38;5.63;;;34.70;57.90;;;;;;5087867;28;20032;-43
2021/08/21 10:56:53;;;;;;;6.80;5.05;;;34.20;59.50;;;;;;5075343;28;20093;-43
2021/08/21 10:59:44;;;;;;;5.55;4.97;;;34.10;60.00;;;;;;5088186;28;20024;-44
2021/08/21 11:02:25;;;;;;;5.07;4.57;;;34.20;61.20;;;;;;5088088;28;20020;-45
2021/08/21 11:04:51;;;;;;;5.65;4.18;;;34.50;58.30;;;;;;5087918;28;20028;-47
2021/08/21 11:07:32;;;;;;;6.35;5.75;;;34.50;57.10;;;;;;5088001;28;20427;-47
2021/08/21 11:10:26;;;;;;;7.50;4.72;;;33.10;55.80;;;;;;5091869;28;20405;-43
2021/08/21 11:12:54;;;;;;;5.10;4.20;;;32.60;59.60;;;;;;5070667;28;20035;-43
2021/08/21 11:15:24;;;;;;;6.72;6.10;;;33.00;59.10;;;;;;5054235;28;20174;-44
2021/08/21 11:17:50;;;;;;;5.30;4.70;;;32.90;58.80;;;;;;5059280;28;20013;-43
2021/08/21 11:20:22;;;;;;;4.68;3.72;;;33.30;58.50;;;;;;5061436;28;20363;-43
2021/08/21 11:23:07;;;;;;;6.15;4.40;;;34.50;57.50;;;;;;5065569;28;20024;-44
2021/08/21 11:25:37;;;;;;;4.97;3.70;;;35.20;55.00;;;;;;5050951;28;20032;-43
2021/08/21 11:28:07;;;;;;;5.55;4.28;;;33.70;55.50;;;;;;5055847;28;20025;-44
2021/08/21 11:30:38;;;;;;;6.20;5.25;;;33.70;56.20;;;;;;5063723;28;20029;-42
2021/08/21 11:33:13;;;;;;;5.50;4.97;;;33.80;57.90;;;;;;5068870;28;20025;-43
2021/08/21 11:35:45;;;;;;;5.95;5.13;;;33.90;57.70;;;;;;5064472;28;20029;-44
2021/08/21 11:38:16;;;;;;;15.10;13.60;;;33.90;56.10;;;;;;5058166;28;20009;-44
2021/08/21 11:40:50;;;;;;;41.25;36.75;;;33.80;57.60;;;;;;5059755;28;20138;-46
2021/08/21 11:43:19;;;;;;;4.70;4.30;;;34.30;57.00;;;;;;5057172;28;20025;-45
2021/08/21 11:45:45;;;;;;;5.35;4.80;;;34.50;54.80;;;;;;5059526;28;20039;-44
2021/08/21 11:48:11;;;;;;;6.93;4.18;;;34.90;53.30;;;;;;5062198;28;20119;-44
2021/08/21 11:50:39;;;;;;;6.65;5.40;;;34.50;54.40;;;;;;5061896;28;20120;-44
2021/08/21 11:53:09;;;;;;;5.07;4.57;;;33.30;54.70;;;;;;5064272;28;20024;-45
2021/08/21 11:55:36;;;;;;;7.18;4.68;;;32.20;57.60;;;;;;5062513;28;20402;-44
2021/08/21 11:58:04;;;;;;;5.07;4.53;;;31.20;59.50;;;;;;5062017;28;20024;-45
2021/08/21 12:00:32;;;;;;;6.03;5.13;;;30.70;62.40;;;;;;5060472;28;20017;-44
2021/08/21 12:03:02;;;;;;;7.40;6.53;;;30.40;62.90;;;;;;5060552;28;20017;-44
2021/08/21 12:05:33;;;;;;;6.43;5.22;;;30.30;63.80;;;;;;5060340;28;20090;-44
2021/08/21 12:08:12;;;;;;;8.45;5.45;;;30.40;64.60;;;;;;5060526;28;20029;-43
2021/08/21 12:10:45;;;;;;;5.63;5.13;;;30.50;65.20;;;;;;5061535;28;20383;-44
2021/08/21 12:13:13;;;;;;;5.57;5.07;;;30.60;64.10;;;;;;5061133;28;20032;-44
2021/08/21 12:15:39;;;;;;;6.50;4.45;;;30.10;64.10;;;;;;5060629;28;20494;-44
2021/08/21 12:18:07;;;;;;;5.10;4.60;;;30.40;64.80;;;;;;5056509;28;20048;-44
2021/08/21 12:20:36;;;;;;;5.60;4.90;;;30.60;61.50;;;;;;5057961;28;20036;-43
2021/08/21 12:23:01;;;;;;;6.47;4.65;;;30.40;61.90;;;;;;5061910;28;20485;-42
2021/08/21 12:25:51;;;;;;;4.65;4.13;;;30.30;62.80;;;;;;5060466;28;20095;-43
2021/08/21 12:28:19;;;;;;;;;;;30.20;65.00;;;;;;5056666;28;20174;-44
2021/08/21 12:30:59;;;;;;;7.25;5.47;;;30.00;64.70;;;;;;5060683;28;19908;-43